Sterling, Ohio
Current Conditions -  °F | °C
As of 9:56 PM on Monday 20 Oct 2014 (Local Time) from KBJJ Reporting Station
Light Rain Light Rain  
Wind Chill: 52°   Ceiling: 700
Heat Index: 52°   Visibility: 6mi
Dew Point: 49°   Wind: 6mph
Humidity: 89%   Direction: 230°SW
Pressure: 29.87"   Gusts: NA
Location:  40.97°N, 81.85°W
Report Text: KBJJ 210156Z AUTO 23005KT 6SM -RA BR BKN007 BKN011 OVC026 11/09 A2987 RMK AO2 CIG 005V009 SLP115 P0010 T01110094 TSNO
Loading
Personal Weather Stations






























Interactive Weather Map
Tropical Storm Tracking
New forecast layout! Learn more

10-Day Weather Forecast

Advertisements
Track Severe Weather on mobile